createdAt,value
2023-01-01T00:02:43.639Z,23.30
2023-01-01T00:07:46.433Z,23.30
2023-01-01T00:12:50.656Z,23.30
2023-01-01T00:17:53.819Z,23.30
2023-01-01T00:22:56.983Z,23.30
2023-01-01T00:28:01.431Z,23.30
2023-01-01T00:33:04.248Z,23.20
2023-01-01T00:38:08.132Z,23.10
2023-01-01T00:43:12.360Z,23.10
2023-01-01T00:48:15.164Z,23.10
2023-01-01T00:53:18.106Z,23.10
2023-01-01T00:58:22.324Z,23.10
2023-01-01T01:03:31.265Z,23.10
2023-01-01T01:08:37.182Z,23.00
2023-01-01T01:13:42.005Z,23.00
2023-01-01T01:18:45.534Z,22.90
2023-01-01T01:23:48.745Z,22.90
2023-01-01T01:28:54.107Z,22.90
2023-01-01T01:33:57.502Z,22.90
2023-01-01T01:39:00.294Z,22.90
2023-01-01T01:44:27.384Z,22.80
2023-01-01T01:49:32.962Z,22.80
2023-01-01T01:54:36.035Z,22.80
2023-01-01T01:59:44.885Z,22.70
2023-01-01T02:04:48.554Z,22.70
2023-01-01T02:09:51.944Z,22.70
2023-01-01T02:14:56.655Z,22.70
2023-01-01T02:20:19.234Z,22.60
2023-01-01T02:25:29.850Z,22.60
2023-01-01T02:30:37.622Z,22.60
2023-01-01T02:35:43.889Z,22.60
2023-01-01T02:40:50.537Z,22.50
2023-01-01T02:45:55.390Z,22.50
2023-01-01T02:51:02.903Z,22.50
2023-01-01T02:56:12.622Z,22.40
2023-01-01T03:01:24.736Z,22.40
2023-01-01T03:06:34.552Z,22.40
2023-01-01T03:11:47.651Z,22.40
2023-01-01T03:16:56.152Z,22.30
2023-01-01T03:22:03.085Z,22.30
2023-01-01T03:27:11.966Z,22.30
2023-01-01T03:32:21.337Z,22.20
2023-01-01T03:37:27.770Z,22.20
2023-01-01T03:42:36.587Z,22.20
2023-01-01T03:47:40.832Z,22.20
2023-01-01T03:52:50.689Z,22.20
2023-01-01T03:58:01.824Z,22.20
2023-01-01T04:03:09.994Z,22.20
2023-01-01T04:08:15.343Z,22.20
2023-01-01T04:13:18.232Z,22.20
2023-01-01T04:18:22.430Z,22.20
2023-01-01T04:23:25.241Z,22.10
2023-01-01T04:28:28.027Z,22.10
2023-01-01T04:33:32.955Z,22.10
2023-01-01T04:38:36.974Z,22.10
2023-01-01T04:43:39.827Z,22.00
2023-01-01T04:48:44.155Z,22.10
2023-01-01T04:53:47.208Z,22.00
2023-01-01T04:58:50.240Z,22.00
2023-01-01T05:03:55.668Z,22.00
2023-01-01T05:08:59.577Z,22.00
2023-01-01T05:14:03.137Z,22.00
2023-01-01T05:19:08.818Z,21.90
2023-01-01T05:24:11.926Z,21.90
2023-01-01T05:29:16.873Z,21.90
2023-01-01T05:34:21.609Z,22.10
2023-01-01T05:39:24.479Z,22.30
2023-01-01T05:44:27.370Z,22.30
2023-01-01T05:49:31.553Z,22.30
2023-01-01T05:54:34.357Z,22.30
2023-01-01T05:59:37.148Z,22.30
2023-01-01T06:04:41.403Z,22.30
2023-01-01T06:09:44.249Z,22.30
2023-01-01T06:14:47.090Z,22.30
2023-01-01T06:19:51.370Z,22.20
2023-01-01T06:24:54.175Z,22.20
2023-01-01T06:29:57.724Z,22.20
2023-01-01T06:35:01.944Z,22.10
2023-01-01T06:40:06.044Z,22.10
2023-01-01T06:45:10.250Z,22.10
2023-01-01T06:50:14.486Z,22.00
2023-01-01T06:55:17.466Z,22.00
2023-01-01T07:00:20.507Z,22.00
2023-01-01T07:05:24.726Z,22.00
2023-01-01T07:10:27.578Z,22.00
2023-01-01T07:15:31.602Z,22.10
2023-01-01T07:20:35.812Z,22.10
2023-01-01T07:25:38.599Z,22.10
2023-01-01T07:30:41.572Z,22.10
2023-01-01T07:35:46.232Z,22.10
2023-01-01T07:40:49.016Z,22.10
2023-01-01T07:45:52.032Z,22.00
2023-01-01T07:50:56.348Z,22.00
2023-01-01T07:55:59.199Z,22.00
2023-01-01T08:01:02.050Z,22.00
2023-01-01T08:06:10.101Z,22.00
2023-01-01T08:11:12.905Z,22.00
2023-01-01T08:16:15.743Z,22.00
2023-01-01T08:21:20.023Z,21.90
2023-01-01T08:26:29.279Z,21.90
2023-01-01T08:31:32.218Z,22.00
2023-01-01T08:36:37.452Z,22.00
2023-01-01T08:41:40.402Z,22.20
2023-01-01T08:46:43.392Z,22.30
2023-01-01T08:51:47.576Z,22.30
2023-01-01T08:56:50.397Z,22.40
2023-01-01T09:01:53.316Z,22.40
2023-01-01T09:06:57.545Z,22.50
2023-01-01T09:12:06.372Z,22.50
2023-01-01T09:17:09.369Z,22.60
2023-01-01T09:22:13.922Z,22.50
2023-01-01T09:27:16.779Z,22.50
2023-01-01T09:32:19.617Z,22.40
2023-01-01T09:37:24.039Z,22.40
2023-01-01T09:42:36.737Z,22.30
2023-01-01T09:47:42.192Z,22.40
2023-01-01T09:52:52.184Z,22.60
2023-01-01T09:57:56.809Z,22.80
2023-01-01T10:03:12.253Z,23.00
2023-01-01T10:08:25.237Z,23.10
2023-01-01T10:13:33.691Z,23.10
2023-01-01T10:18:39.571Z,23.20
2023-01-01T10:23:47.540Z,23.30
2023-01-01T10:28:57.903Z,23.30
2023-01-01T10:34:04.416Z,23.30
2023-01-01T10:39:10.057Z,23.30
2023-01-01T10:44:13.600Z,23.30
2023-01-01T10:49:16.956Z,23.30
2023-01-01T10:54:34.264Z,23.30
2023-01-01T10:59:39.665Z,23.30
2023-01-01T11:04:42.717Z,23.30
2023-01-01T11:10:02.549Z,23.30
2023-01-01T11:15:07.893Z,23.20
2023-01-01T11:20:20.436Z,22.80
2023-01-01T11:25:26.814Z,22.70
2023-01-01T11:30:30.516Z,23.00
2023-01-01T11:35:38.715Z,23.20
2023-01-01T11:40:48.618Z,23.30
2023-01-01T11:45:53.635Z,23.40
2023-01-01T11:50:58.570Z,23.40
2023-01-01T11:56:09.852Z,23.40
2023-01-01T12:01:15.796Z,23.40
2023-01-01T12:06:24.545Z,23.40
2023-01-01T12:11:34.883Z,23.40
2023-01-01T12:16:50.112Z,23.40
2023-01-01T12:21:58.116Z,23.30
2023-01-01T12:27:19.183Z,23.30
2023-01-01T12:32:29.612Z,23.40
2023-01-01T12:37:47.016Z,23.40
2023-01-01T12:43:02.434Z,23.50
2023-01-01T12:48:17.689Z,23.60
2023-01-01T12:53:30.075Z,23.60
2023-01-01T12:58:37.817Z,23.50
2023-01-01T13:03:50.876Z,23.50
2023-01-01T13:08:59.963Z,23.40
2023-01-01T13:14:04.239Z,23.40
2023-01-01T13:19:07.388Z,23.30
2023-01-01T13:24:21.216Z,23.30
2023-01-01T13:29:47.307Z,23.30
2023-01-01T13:35:15.985Z,23.30
2023-01-01T13:40:53.241Z,23.30
2023-01-01T13:46:15.515Z,23.30
2023-01-01T13:52:08.167Z,23.30
2023-01-01T13:57:36.740Z,23.20
2023-01-01T14:02:44.897Z,23.30
2023-01-01T14:07:52.409Z,23.20
2023-01-01T14:12:57.102Z,23.20
2023-01-01T14:18:03.585Z,23.10
2023-01-01T14:23:10.368Z,23.10
2023-01-01T14:28:17.544Z,23.10
2023-01-01T14:33:25.996Z,23.10
2023-01-01T14:38:30.779Z,23.10
2023-01-01T14:43:33.657Z,23.10
2023-01-01T14:48:37.920Z,23.10
2023-01-01T14:53:43.532Z,23.10
2023-01-01T14:58:46.435Z,23.10
2023-01-01T15:04:02.305Z,23.00
2023-01-01T15:09:05.170Z,23.00
2023-01-01T15:14:07.966Z,22.90
2023-01-01T15:19:24.501Z,22.90
2023-01-01T15:24:29.182Z,22.90
2023-01-01T15:29:34.478Z,22.90
2023-01-01T15:34:43.523Z,22.90
2023-01-01T15:39:48.853Z,22.80
2023-01-01T15:44:51.756Z,22.80
2023-01-01T15:50:10.407Z,22.70
2023-01-01T15:55:16.475Z,22.60
2023-01-01T16:00:22.369Z,22.60
2023-01-01T16:05:28.360Z,22.60
2023-01-01T16:10:32.021Z,22.60
2023-01-01T16:15:35.547Z,22.60
2023-01-01T16:20:40.331Z,22.50
2023-01-01T16:25:43.187Z,22.60
2023-01-01T16:30:46.931Z,22.40
2023-01-01T16:35:51.121Z,22.50
2023-01-01T16:40:53.929Z,22.40
2023-01-01T16:45:56.770Z,22.40
2023-01-01T16:51:00.997Z,22.50
2023-01-01T16:56:03.830Z,22.40
2023-01-01T17:01:07.253Z,22.40
2023-01-01T17:06:11.837Z,22.50
2023-01-01T17:11:16.759Z,22.50
2023-01-01T17:16:27.033Z,22.50
2023-01-01T17:21:32.488Z,22.60
2023-01-01T17:26:35.610Z,22.50
2023-01-01T17:31:38.658Z,22.40
2023-01-01T17:36:43.884Z,22.40
2023-01-01T17:41:46.893Z,22.40
2023-01-01T17:46:49.840Z,22.40
2023-01-01T17:51:54.172Z,22.50
2023-01-01T17:56:59.288Z,22.70
2023-01-01T18:02:02.486Z,22.80
2023-01-01T18:07:06.853Z,22.90
2023-01-01T18:12:10.019Z,23.00
2023-01-01T18:17:12.915Z,23.10
2023-01-01T18:22:17.160Z,23.20
2023-01-01T18:27:19.994Z,23.30
2023-01-01T18:32:22.846Z,23.40
2023-01-01T18:37:27.034Z,23.60
2023-01-01T18:42:40.509Z,23.70
2023-01-01T18:47:45.712Z,23.70
2023-01-01T18:52:49.933Z,23.80
2023-01-01T18:57:59.167Z,23.90
2023-01-01T19:03:03.684Z,24.00
2023-01-01T19:08:15.638Z,24.00
2023-01-01T19:13:21.414Z,24.10
2023-01-01T19:18:25.617Z,24.10
2023-01-01T19:23:31.558Z,24.20
2023-01-01T19:28:36.275Z,24.30
2023-01-01T19:33:42.791Z,24.30
2023-01-01T19:38:50.080Z,24.40
2023-01-01T19:43:53.234Z,24.40
2023-01-01T19:48:56.447Z,24.40
2023-01-01T19:54:00.806Z,24.50
2023-01-01T19:59:03.625Z,24.60
2023-01-01T20:04:06.582Z,24.60
2023-01-01T20:09:10.904Z,24.60
2023-01-01T20:14:13.763Z,24.70
2023-01-01T20:19:16.685Z,24.60
2023-01-01T20:24:21.016Z,24.60
2023-01-01T20:29:24.309Z,24.60
2023-01-01T20:34:27.693Z,24.60
2023-01-01T20:39:32.164Z,24.60
2023-01-01T20:44:35.652Z,24.60
2023-01-01T20:49:38.588Z,24.60
2023-01-01T20:54:43.002Z,24.60
2023-01-01T20:59:45.919Z,24.60
2023-01-01T21:04:49.061Z,24.50
2023-01-01T21:09:53.305Z,24.50
2023-01-01T21:14:56.852Z,24.50
2023-01-01T21:20:00.056Z,24.50
2023-01-01T21:25:49.301Z,24.40
2023-01-01T21:30:40.626Z,24.40
2023-01-01T21:35:44.482Z,24.40
2023-01-01T21:40:52.528Z,24.40
2023-01-01T21:45:57.581Z,24.40
2023-01-01T21:51:01.639Z,24.40
2023-01-01T21:56:27.029Z,24.30
2023-01-01T22:01:37.769Z,24.20
2023-01-01T22:06:43.097Z,24.20
2023-01-01T22:11:48.550Z,24.20
2023-01-01T22:16:55.558Z,24.20
2023-01-01T22:21:58.753Z,24.20
2023-01-01T22:27:23.345Z,24.10
2023-01-01T22:32:29.108Z,24.10
2023-01-01T22:37:36.057Z,24.00
2023-01-01T22:42:40.409Z,24.00
2023-01-01T22:47:44.944Z,23.90
2023-01-01T22:52:48.078Z,23.90
2023-01-01T22:57:52.400Z,23.80
2023-01-01T23:02:55.394Z,23.80
2023-01-01T23:07:59.100Z,23.80
2023-01-01T23:13:23.604Z,23.70
2023-01-01T23:18:26.465Z,23.60
2023-01-01T23:23:31.012Z,23.60
2023-01-01T23:28:37.727Z,23.50
2023-01-01T23:33:41.329Z,23.40
2023-01-01T23:38:44.226Z,23.40
2023-01-01T23:43:48.411Z,23.40
2023-01-01T23:48:51.584Z,23.30
2023-01-01T23:53:54.454Z,23.20
2023-01-01T23:58:58.707Z,23.20
